Star Mariella — V7KK3 — position and weather

sailwx.info

Track history (hours):
 
Tides and Currents Weather Stations Pressure Air Temp Water Temp Dewpoint Dewpoint Depression Visibility Wind Speed Wind Dir Waves Ship Positions

Star Mariella

Last reported at 2014-Oct-13 22:27 UTC. Time now 2014-Oct-20 22:53 UTC.
Position N 08°42' E 123°44'.

Length 229 m; draft 7.5 m.

Type: Ship. MMSI: 538002632.

Date/timePositionNaut miles runAvg speedWind from/ knotsBaromVisibWave heightAir tempDewpointWater temp
2014-Oct-13 22:27N 08°42' E 123°44'1110.5
2014-Oct-13 21:24N 08°46' E 123°34'910.6
2014-Oct-13 20:33N 08°48' E 123°25'2611.4
2014-Oct-13 18:18N 08°54' E 123°00'2411.2
2014-Oct-13 16:10N 09°11' E 122°42'711.1
2014-Oct-13 15:30N 09°17' E 122°38'1010.9
2014-Oct-13 14:33N 09°24' E 122°31'  
2014-Oct-10 13:16N 22°28' E 119°48'811.1
2014-Oct-10 12:33N 22°33' E 119°54'1111.4
2014-Oct-10 11:33N 22°42' E 120°01'  
2014-Oct-08 02:26N 22°44' E 120°10'6 6.5
2014-Oct-08 01:33N 22°38' E 120°10'9 9.5
2014-Oct-08 00:34N 22°32' E 120°03'  
Track history (hours):
 
Tides and Currents Weather Stations Pressure Air Temp Water Temp Dewpoint Dewpoint Depression Visibility Wind Speed Wind Dir Waves Ship Positions

Star Mariella

Last reported at 2014-Oct-13 22:27 UTC. Time now 2014-Oct-20 22:53 UTC.
Position N 08°42' E 123°44'.

Length 229 m; draft 7.5 m.

Type: Ship. MMSI: 538002632.

Date/timePositionNaut miles runAvg speedWind from/ knotsBaromVisibWave heightAir tempDewpointWater temp
2014-Oct-13 22:27N 08°42' E 123°44'1110.5
2014-Oct-13 21:24N 08°46' E 123°34'910.6
2014-Oct-13 20:33N 08°48' E 123°25'2611.4
2014-Oct-13 18:18N 08°54' E 123°00'2411.2
2014-Oct-13 16:10N 09°11' E 122°42'711.1
2014-Oct-13 15:30N 09°17' E 122°38'1010.9
2014-Oct-13 14:33N 09°24' E 122°31'  
2014-Oct-10 13:16N 22°28' E 119°48'811.1
2014-Oct-10 12:33N 22°33' E 119°54'1111.4
2014-Oct-10 11:33N 22°42' E 120°01'  
2014-Oct-08 02:26N 22°44' E 120°10'6 6.5
2014-Oct-08 01:33N 22°38' E 120°10'9 9.5
2014-Oct-08 00:34N 22°32' E 120°03'  

Dump ship's entire track history